Historyczne dane pomiarowe

Dodano dane terminowe – wersja testowa.

Dane z okresu 1951-2019

Wersja bazy: 1.34 [2019-03-16, lista zmian], aktualizacja planowana na 2019-04-15

Dane meteo z obszaru Polski uzyskane na podstawie danych udostępnionych przez Instytut Meteorologii i Gospodarki Wodnej – Państwowy Instytut Badawczy.

 

Wybierz Datę:    

       

TemperaturaWilgotnośćWiatrCiśnienieOpadyŚniegCzas trwania zjawisk
 Stacja t tx tn tng RH VA  wxwx mslp ppp RRR   cm mm wxwxwxwxwxwxwx
1987-07-08 21.6 28.3 12.9 9.5 56.5- 0.3 2.0---- 0.0------------
1987-07-07 19.0 25.8 10.4 6.7 78.5- 0.0 1.7---- 0.0------------
1987-07-06 16.7 22.4 8.8 5.3 76.5- 0.0 1.7---- 0.0------------
1987-07-05 14.5 20.3 12.1 8.6 93.0- 5.3 1.3---- 0.2------------
1987-07-04 19.0 23.5 14.7 9.3 84.0- 2.0 2.3---- 0.0------------
1987-07-03 18.2 21.4 15.1 13.1 82.8- 7.7 1.3---- 0.0------------
1987-07-02 17.3 26.8 14.2 13.5 97.5- 8.0 1.7---- 0.1------------
1987-07-01 24.3 30.6 17.1 13.5 78.0- 0.3 1.0---- 0.0------------
1987-06-30 22.4 28.9 14.8 10.8 81.8- 0.0 1.3---- 0.0------------
1987-06-29 20.5 25.3 16.6 13.6 84.8- 4.0 0.7---- 0.0------------
1987-06-28 19.4 24.9 12.6 9.3 82.0- 2.0 1.3---- 0.0------------
1987-06-27 17.2 20.7 14.9 12.1 93.3- 7.3 1.0---- 0.0------------
1987-06-26 17.1 23.8 8.5 4.5 71.5- 5.0 3.3---- 21.3------------
1987-06-25 13.0 18.3 11.4 8.6 92.5- 6.0 2.0---- 4.5------------
1987-06-24 16.1 21.1 12.0 7.5 80.3- 6.0 1.7---- 2.0------------
1987-06-23 15.6 21.2 11.7 9.6 77.8- 6.7 0.7---- 0.0------------
1987-06-22 13.2 17.0 12.4 9.9 97.0- 8.0 2.0---- 1.7------------
1987-06-21 14.1 19.9 8.7 5.3 91.5- 6.7 2.3---- 4.7------------
1987-06-20 14.7 21.2 8.2 8.4 81.8- 4.0 3.3---- 10.9------------
1987-06-19 12.8 18.8 6.6 3.3 80.3- 2.3 2.0---- 0.0------------
1987-06-18 10.2 15.4 6.5 2.5 87.8- 4.0 2.0---- 7.7------------
1987-06-17 10.8 15.3 8.6 2.6 87.5- 2.7 3.7---- 3.0------------
1987-06-16 13.6 22.2 8.8 8.6 92.0- 6.0 2.3---- 18.3------------
1987-06-15 21.4 29.5 14.0 9.2 81.0- 4.0 5.3---- 14.0------------
1987-06-14 21.9 26.1 17.7 10.8 74.5- 4.7 2.0---- 3.3------------
1987-06-13 19.9 26.4 13.3 8.2 82.5- 2.0 0.7---- 0.0------------
1987-06-12 19.1 25.6 10.7 5.3 70.5- 3.0 1.7---- 0.0------------
1987-06-11 15.8 22.0 9.3 4.4 80.3- 0.7 2.0---- 0.0------------
1987-06-10 15.2 19.7 13.1 10.1 91.0- 6.3 1.0---- 0.5------------
1987-06-09 13.7 18.6 10.7 8.6 95.0- 7.7 1.0---- 1.1------------
1987-06-08 19.2 25.9 14.1 8.1 80.3- 6.3 2.7---- 0.7------------
1987-06-07 18.6 23.2 12.3 6.6 74.5- 4.3 1.3---- 0.2------------
1987-06-06 14.4 17.0 11.1 7.1 81.3- 5.0 1.7---- 0.0------------
1987-06-05 12.1 16.8 10.8 9.1 97.5- 8.0 2.7---- 14.3------------
1987-06-04 15.1 20.4 11.5 8.4 86.3- 5.7 2.3---- 35.5------------
1987-06-03 11.4 13.9 7.5 3.1 92.5- 7.7 1.3---- 3.3------------
1987-06-02 12.5 17.5 7.8 3.5 85.5- 6.3 1.0---- 6.5------------
1987-06-01 10.4 16.5 2.5 -1.4 77.3- 5.0 1.3---- 0.4------------
1987-05-31 9.0 12.8 5.2 2.6 82.8- 4.7 0.7---- 0.0------------
1987-05-30 7.4 12.6 4.6 -0.2 94.3- 8.0 2.3---- 4.7------------
1987-05-29 11.6 15.7 6.7 2.9 78.8- 2.7 0.7---- 0.0------------
1987-05-28 12.2 15.6 9.8 5.0 88.3- 7.3 1.7---- 16.1------------
1987-05-27 13.0 20.4 5.1 0.7 68.3- 2.7 1.3---- 2.8------------
1987-05-26 11.2 16.4 4.9 -0.3 77.3- 2.7 2.7---- 0.0------------
1987-05-25 11.4 16.4 6.6 1.7 77.8- 4.0 2.0---- 0.0------------
1987-05-24 9.9 14.8 7.2 4.4 84.3- 7.3 0.0---- 0.0------------
1987-05-23 9.1 11.8 6.5 4.4 95.5- 8.0 2.0---- 0.1------------
1987-05-22 6.5 7.0 5.6 3.8 99.3- 8.0 1.7---- 19.1------------
1987-05-21 7.2 9.2 5.8 3.6 91.3- 8.0 0.7---- 36.0------------
1987-05-20 10.8 14.4 8.5 5.6 94.8- 8.0 0.7---- 16.6------------
1987-05-19 14.2 18.2 9.0 3.7 83.3- 6.3 0.0---- 0.0------------
1987-05-18 13.0 18.4 7.1 3.0 75.8- 7.7 1.3---- 2.7------------
1987-05-17 10.2 14.7 6.4 2.9 72.3- 2.3 2.7---- 0.2------------
1987-05-16 9.8 13.5 7.5 2.2 89.8- 6.7 1.7---- 17.3------------
1987-05-15 10.0 15.6 3.7 -0.4 65.5- 0.7 3.3---- 2.9------------
1987-05-14 5.5 12.4 4.2 2.2 93.8- 6.7 1.7---- 17.0------------
1987-05-13 13.4 15.1 11.5 8.5 70.8- 8.0 2.0---- 18.5------------
1987-05-12 12.2 18.7 5.7 1.8 63.5- 7.3 3.0---- 0.0------------
1987-05-11 10.4 19.3 6.8 4.5 71.8- 6.0 2.7---- 0.0------------
1987-05-10 15.1 22.3 5.5 1.8 55.8- 2.0 6.7---- 1.7------------
376.9 ms

 

Źródłem pochodzenia danych jest Instytut Meteorologii i Gospodarki Wodnej – Państwowy Instytut Badawczy. Dane Instytutu Meteorologii i Gospodarki Wodnej – Państwowego Instytutu Badawczego zostały przetworzone.

Dane źródłowe można odnaleźć na stronie https://dane.imgw.pl